Time;durP1;ratioP1;P1;durP2;ratioP2;P2;SDS_P1;SDS_P2;PMS_P1;PMS_P2;Temp;Humidity;BMP_temperature;BMP_pressure;BME280_temperature;BME280_humidity;BME280_pressure;Samples;Min_cycle;Max_cycle;Signal;HPM_P1;HPM_P2
2023/10/06 00:00:44;;;;;;;11.20;6.10;;;8.20;99.90;;;;;;5027966;28;20195;-59
2023/10/06 00:03:14;;;;;;;12.80;6.87;;;8.20;99.90;;;;;;5028467;28;20200;-59
2023/10/06 00:05:40;;;;;;;17.37;7.33;;;8.20;99.90;;;;;;5027970;28;20426;-59
2023/10/06 00:08:17;;;;;;;15.63;6.47;;;8.20;99.90;;;;;;5021377;28;20972;-60
2023/10/06 00:10:51;;;;;;;14.00;5.83;;;8.20;99.90;;;;;;5026177;28;20434;-58
2023/10/06 00:13:31;;;;;;;13.77;6.50;;;8.10;99.90;;;;;;5026580;28;20433;-60
2023/10/06 00:15:58;;;;;;;11.70;6.27;;;8.10;99.90;;;;;;5025263;28;20942;-59
2023/10/06 00:18:27;;;;;;;11.60;6.13;;;8.10;99.90;;;;;;5025543;28;20876;-58
2023/10/06 00:20:57;;;;;;;11.70;6.37;;;8.00;99.90;;;;;;5026211;28;20418;-59
2023/10/06 00:23:26;;;;;;;11.23;6.30;;;8.00;99.90;;;;;;5027740;28;20989;-59
2023/10/06 00:25:57;;;;;;;12.30;6.90;;;8.00;99.90;;;;;;5026171;28;20983;-59
2023/10/06 00:28:26;;;;;;;15.13;7.00;;;7.90;99.90;;;;;;5025237;28;20434;-59
2023/10/06 00:30:56;;;;;;;11.50;5.93;;;7.90;99.90;;;;;;5020470;28;20524;-60
2023/10/06 00:33:32;;;;;;;12.10;6.60;;;7.90;99.90;;;;;;5027528;28;20487;-57
2023/10/06 00:36:16;;;;;;;10.70;6.27;;;7.90;99.90;;;;;;5024201;28;20458;-59
2023/10/06 00:38:47;;;;;;;13.67;6.63;;;7.80;99.90;;;;;;5025688;28;20474;-59
2023/10/06 00:41:14;;;;;;;16.50;7.10;;;7.80;99.90;;;;;;5022385;28;20418;-59
2023/10/06 00:43:46;;;;;;;17.93;7.33;;;7.80;99.90;;;;;;5027536;28;20437;-59
2023/10/06 00:46:18;;;;;;;10.40;6.53;;;7.80;99.90;;;;;;5022386;28;20930;-60
2023/10/06 00:48:45;;;;;;;14.07;6.60;;;7.70;99.90;;;;;;5027437;28;20442;-60
2023/10/06 00:51:19;;;;;;;15.03;7.23;;;7.70;99.90;;;;;;5027660;28;21141;-59
2023/10/06 00:53:51;;;;;;;12.00;6.03;;;7.70;99.90;;;;;;5026154;28;20425;-59
2023/10/06 00:56:18;;;;;;;11.17;6.00;;;7.60;99.90;;;;;;5020981;28;20439;-60
2023/10/06 00:58:44;;;;;;;14.50;6.27;;;7.60;99.90;;;;;;5026114;28;21061;-60
2023/10/06 01:01:16;;;;;;;15.30;7.03;;;7.60;99.90;;;;;;5025844;28;20941;-59
2023/10/06 01:03:44;;;;;;;12.93;6.50;;;7.60;99.90;;;;;;5020146;28;20472;-59
2023/10/06 01:06:14;;;;;;;13.87;6.47;;;7.60;99.90;;;;;;5025615;28;20418;-59
2023/10/06 01:08:49;;;;;;;16.77;6.43;;;7.60;99.90;;;;;;5024785;28;20450;-60
2023/10/06 01:11:17;;;;;;;32.77;6.67;;;7.50;99.90;;;;;;5026742;28;20899;-59
2023/10/06 01:14:02;;;;;;;13.70;6.23;;;7.50;99.90;;;;;;5019788;28;20422;-60
2023/10/06 01:16:38;;;;;;;17.43;7.70;;;7.50;99.90;;;;;;5023310;28;20435;-59
2023/10/06 01:19:15;;;;;;;10.30;6.17;;;7.50;99.90;;;;;;5025221;28;20473;-60
2023/10/06 01:21:46;;;;;;;10.00;6.00;;;7.50;99.90;;;;;;5022402;28;20441;-59
2023/10/06 01:24:13;;;;;;;14.20;6.33;;;7.50;99.90;;;;;;5027010;28;20449;-59
2023/10/06 01:26:42;;;;;;;9.77;5.50;;;7.50;99.90;;;;;;5025274;28;20479;-59
2023/10/06 01:29:13;;;;;;;12.17;5.87;;;7.40;99.90;;;;;;5027177;28;20453;-59
2023/10/06 01:31:40;;;;;;;12.47;6.13;;;7.30;99.90;;;;;;5026907;28;20425;-58
2023/10/06 01:34:11;;;;;;;11.53;5.97;;;7.30;99.90;;;;;;5021659;28;20442;-59
2023/10/06 01:36:37;;;;;;;18.83;6.80;;;7.30;99.90;;;;;;5025490;28;20427;-59
2023/10/06 01:39:04;;;;;;;13.13;6.23;;;7.30;99.90;;;;;;5022451;28;20466;-59
2023/10/06 01:41:34;;;;;;;14.37;6.13;;;7.30;99.90;;;;;;5023668;28;22476;-58
2023/10/06 01:44:01;;;;;;;12.43;5.47;;;7.20;99.90;;;;;;5021006;28;20568;-59
2023/10/06 01:46:28;;;;;;;14.27;6.37;;;7.20;99.90;;;;;;5028539;28;20596;-59
2023/10/06 01:48:53;;;;;;;11.87;6.10;;;7.20;99.90;;;;;;5028412;28;20888;-59
2023/10/06 01:51:19;;;;;;;11.00;6.30;;;7.20;99.90;;;;;;5025841;28;20442;-59
2023/10/06 01:53:45;;;;;;;12.63;6.47;;;7.20;99.90;;;;;;5024083;28;20207;-59
2023/10/06 01:56:13;;;;;;;12.63;6.10;;;7.10;99.90;;;;;;5023826;28;20191;-59
2023/10/06 01:58:39;;;;;;;27.43;7.50;;;7.10;99.90;;;;;;5025300;28;20820;-58
2023/10/06 02:01:06;;;;;;;14.00;6.20;;;7.10;99.90;;;;;;5023883;28;20438;-60
2023/10/06 02:03:37;;;;;;;13.33;6.30;;;7.10;99.90;;;;;;5024608;28;20197;-58
2023/10/06 02:06:03;;;;;;;12.13;6.63;;;7.10;99.90;;;;;;5032277;28;20522;-59
2023/10/06 02:08:30;;;;;;;11.83;5.40;;;7.00;99.90;;;;;;5032275;28;20477;-59
2023/10/06 02:10:56;;;;;;;9.43;5.70;;;7.00;99.90;;;;;;5025855;28;20879;-59
2023/10/06 02:13:21;;;;;;;11.67;6.30;;;6.90;99.90;;;;;;5028243;28;20427;-60
2023/10/06 02:15:58;;;;;;;15.10;6.70;;;6.90;99.90;;;;;;5029774;28;20210;-60
2023/10/06 02:18:35;;;;;;;11.13;6.00;;;6.90;99.90;;;;;;5024826;28;20203;-58
2023/10/06 02:21:04;;;;;;;15.27;7.23;;;6.90;99.90;;;;;;5025636;28;20434;-60
2023/10/06 02:23:29;;;;;;;14.37;7.40;;;6.90;99.90;;;;;;5028201;28;20476;-59
2023/10/06 02:25:55;;;;;;;11.23;7.00;;;6.90;99.90;;;;;;5030153;28;20426;-59
2023/10/06 02:28:20;;;;;;;17.50;7.57;;;6.90;99.90;;;;;;5026258;28;20219;-60
2023/10/06 02:30:51;;;;;;;12.80;6.10;;;6.80;99.90;;;;;;5025230;28;20184;-60
2023/10/06 02:33:17;;;;;;;11.83;6.53;;;6.80;99.90;;;;;;5027281;28;20175;-59
2023/10/06 02:35:46;;;;;;;13.90;6.77;;;6.80;99.90;;;;;;5026599;28;20867;-59
2023/10/06 02:38:12;;;;;;;18.60;7.60;;;6.80;99.90;;;;;;5029598;28;20230;-59
2023/10/06 02:40:44;;;;;;;25.17;7.73;;;6.70;99.90;;;;;;5027588;28;20486;-59
2023/10/06 02:43:13;;;;;;;37.37;7.57;;;6.70;99.90;;;;;;5026577;28;20179;-59
2023/10/06 02:45:40;;;;;;;20.40;7.27;;;6.70;99.90;;;;;;5028989;28;20426;-59
2023/10/06 02:48:17;;;;;;;20.30;6.23;;;6.60;99.90;;;;;;5030219;28;20439;-59
2023/10/06 02:50:45;;;;;;;11.40;6.17;;;6.50;99.90;;;;;;5026339;28;20449;-59
2023/10/06 02:53:14;;;;;;;12.87;6.13;;;6.50;99.90;;;;;;5026515;28;20418;-58
2023/10/06 02:55:43;;;;;;;14.37;6.43;;;6.50;99.90;;;;;;5022267;28;20978;-59
2023/10/06 02:58:15;;;;;;;36.73;7.77;;;6.50;99.90;;;;;;5024866;28;20454;-60
2023/10/06 03:00:50;;;;;;;73.40;7.73;;;6.50;99.90;;;;;;5028907;28;20454;-59
2023/10/06 03:03:18;;;;;;;12.87;6.20;;;6.50;99.90;;;;;;5020384;28;20450;-60
2023/10/06 03:05:49;;;;;;;25.47;6.73;;;6.50;99.90;;;;;;5023721;28;20427;-59
2023/10/06 03:08:20;;;;;;;28.50;6.90;;;6.40;99.90;;;;;;5026280;28;20450;-58
2023/10/06 03:10:48;;;;;;;50.70;7.40;;;6.40;99.90;;;;;;5026692;28;20507;-58
2023/10/06 03:13:43;;;;;;;44.33;8.67;;;6.40;99.90;;;;;;5021394;28;20454;-59
2023/10/06 03:16:10;;;;;;;27.67;7.70;;;6.30;99.90;;;;;;5025928;28;20537;-60
2023/10/06 03:18:36;;;;;;;16.40;6.60;;;6.30;99.90;;;;;;5027389;28;20501;-61
2023/10/06 03:21:20;;;;;;;26.30;6.77;;;6.20;99.90;;;;;;5028623;28;20479;-60
2023/10/06 03:23:47;;;;;;;15.30;5.60;;;6.20;99.90;;;;;;5027020;28;20525;-60
2023/10/06 03:26:34;;;;;;;20.07;6.20;;;6.10;99.90;;;;;;5029304;28;20881;-60
2023/10/06 03:29:11;;;;;;;10.13;5.60;;;6.10;99.90;;;;;;5028030;28;20458;-59
2023/10/06 03:31:45;;;;;;;18.60;6.43;;;6.10;99.90;;;;;;5027542;28;20513;-61
2023/10/06 03:34:17;;;;;;;35.37;7.07;;;6.10;99.90;;;;;;5025332;28;20430;-60
2023/10/06 03:36:51;;;;;;;19.03;5.77;;;6.20;99.90;;;;;;5026867;28;20460;-59
2023/10/06 03:39:22;;;;;;;13.60;6.23;;;6.20;99.90;;;;;;5028704;28;20474;-60
2023/10/06 03:41:52;;;;;;;12.87;6.03;;;6.20;99.90;;;;;;5028767;28;20449;-60
2023/10/06 03:44:26;;;;;;;12.93;6.50;;;6.20;99.90;;;;;;5025668;28;20418;-60
2023/10/06 03:46:53;;;;;;;12.63;6.80;;;6.20;99.90;;;;;;5027344;28;20411;-60
2023/10/06 03:49:18;;;;;;;15.17;7.23;;;6.20;99.90;;;;;;5023020;28;20878;-59
2023/10/06 03:51:44;;;;;;;9.20;5.80;;;6.20;99.90;;;;;;5022548;28;20488;-59
2023/10/06 03:54:10;;;;;;;11.80;6.70;;;6.20;99.90;;;;;;5027037;28;20202;-57
2023/10/06 03:56:36;;;;;;;9.63;5.93;;;6.20;99.90;;;;;;5032144;28;20180;-58
2023/10/06 03:59:12;;;;;;;13.63;7.33;;;6.20;99.90;;;;;;5025465;28;20470;-56
2023/10/06 04:01:38;;;;;;;22.63;6.47;;;6.20;99.90;;;;;;5026362;28;20426;-56
2023/10/06 04:04:04;;;;;;;17.40;6.43;;;6.20;99.90;;;;;;5025316;28;20485;-56
2023/10/06 04:06:35;;;;;;;130.40;9.43;;;6.20;99.90;;;;;;5022145;28;20176;-55
2023/10/06 04:09:01;;;;;;;68.20;7.77;;;6.20;99.90;;;;;;5021722;28;21293;-59
2023/10/06 04:11:29;;;;;;;48.63;8.03;;;6.10;99.90;;;;;;5014731;28;20435;-59
2023/10/06 04:13:56;;;;;;;12.90;6.13;;;6.00;99.90;;;;;;5018232;28;20433;-61
2023/10/06 04:16:23;;;;;;;37.27;6.80;;;6.00;99.90;;;;;;5023379;28;20438;-59
2023/10/06 04:18:49;;;;;;;11.37;5.97;;;5.90;99.90;;;;;;5023934;28;20545;-61
2023/10/06 04:21:18;;;;;;;9.40;5.40;;;5.90;99.90;;;;;;5012610;28;20522;-60
2023/10/06 04:23:44;;;;;;;11.13;5.90;;;5.90;99.90;;;;;;5014429;28;20458;-61
2023/10/06 04:26:11;;;;;;;12.37;4.80;;;5.90;99.90;;;;;;5014383;28;20458;-61
2023/10/06 04:28:37;;;;;;;7.27;5.00;;;5.90;99.90;;;;;;5017947;28;20230;-60
2023/10/06 04:31:05;;;;;;;18.87;5.13;;;5.90;99.90;;;;;;5018906;28;20429;-59
2023/10/06 04:33:31;;;;;;;11.87;5.27;;;5.90;99.90;;;;;;5011821;28;20950;-60
2023/10/06 04:35:59;;;;;;;13.00;5.07;;;5.90;99.90;;;;;;5011904;28;20450;-59
2023/10/06 04:38:29;;;;;;;8.33;5.20;;;5.80;99.90;;;;;;5022191;28;20462;-58
2023/10/06 04:40:56;;;;;;;6.33;4.70;;;5.80;99.90;;;;;;5026234;28;20858;-58
2023/10/06 04:43:22;;;;;;;8.80;5.50;;;5.80;99.90;;;;;;5025333;28;20433;-60
2023/10/06 04:45:48;;;;;;;7.70;5.00;;;5.80;99.90;;;;;;5025644;28;20423;-59
2023/10/06 04:48:15;;;;;;;8.37;5.37;;;5.80;99.90;;;;;;5023823;28;20422;-59
2023/10/06 04:50:44;;;;;;;14.77;5.60;;;5.80;99.90;;;;;;5026692;28;20826;-59
2023/10/06 04:53:11;;;;;;;10.60;5.97;;;5.80;99.90;;;;;;5021336;28;20464;-59
2023/10/06 04:55:38;;;;;;;9.57;5.60;;;5.80;99.90;;;;;;5016632;28;21008;-59
2023/10/06 04:58:21;;;;;;;8.83;5.60;;;5.80;99.90;;;;;;5023430;28;20442;-60
2023/10/06 05:00:52;;;;;;;11.50;6.23;;;5.80;99.90;;;;;;5022864;28;20540;-59
2023/10/06 05:03:19;;;;;;;8.57;5.80;;;5.80;99.90;;;;;;5018672;28;20449;-57
2023/10/06 05:05:44;;;;;;;7.77;5.60;;;5.80;99.90;;;;;;5012854;28;20438;-58
2023/10/06 05:08:14;;;;;;;22.87;6.23;;;5.80;99.90;;;;;;5026563;28;20426;-58
2023/10/06 05:10:40;;;;;;;50.97;7.27;;;5.80;99.90;;;;;;5015373;28;20196;-58
2023/10/06 05:13:07;;;;;;;9.50;6.23;;;5.70;99.90;;;;;;5022582;28;20440;-59
2023/10/06 05:15:36;;;;;;;7.63;5.33;;;5.70;99.90;;;;;;5025517;28;20468;-58
2023/10/06 05:18:04;;;;;;;9.40;5.90;;;5.70;99.90;;;;;;5028137;28;20458;-62
2023/10/06 05:20:31;;;;;;;10.53;6.03;;;5.60;99.90;;;;;;5017252;28;21011;-59
2023/10/06 05:23:09;;;;;;;9.93;6.07;;;5.60;99.90;;;;;;5024255;28;20473;-59
2023/10/06 05:25:35;;;;;;;13.70;6.43;;;5.60;99.90;;;;;;5023012;28;20466;-59
2023/10/06 05:28:02;;;;;;;21.20;7.10;;;5.70;99.90;;;;;;5025067;28;20419;-59
2023/10/06 05:30:28;;;;;;;22.73;6.97;;;5.60;99.90;;;;;;5027751;28;20474;-59
2023/10/06 05:33:00;;;;;;;10.60;5.63;;;5.60;99.90;;;;;;5030471;28;20421;-59
2023/10/06 05:35:26;;;;;;;19.40;6.80;;;5.60;99.90;;;;;;5027168;28;20442;-59
2023/10/06 05:37:53;;;;;;;9.40;6.27;;;5.50;99.90;;;;;;5024434;28;20872;-59
2023/10/06 05:40:20;;;;;;;9.00;5.90;;;5.50;99.90;;;;;;5027461;28;20454;-59
2023/10/06 05:42:51;;;;;;;17.97;6.20;;;5.50;99.90;;;;;;5028929;28;20446;-58
2023/10/06 05:45:18;;;;;;;9.80;6.27;;;5.50;99.90;;;;;;5028279;28;20423;-59
2023/10/06 05:47:50;;;;;;;9.93;5.77;;;5.50;99.90;;;;;;5024986;28;20457;-59
2023/10/06 05:50:29;;;;;;;14.60;6.27;;;5.60;99.90;;;;;;5019259;28;20863;-59
2023/10/06 05:53:04;;;;;;;10.93;5.47;;;5.60;99.90;;;;;;5029238;28;20421;-59
2023/10/06 05:55:37;;;;;;;8.27;5.53;;;5.60;99.90;;;;;;5028487;28;20428;-57
2023/10/06 05:58:14;;;;;;;8.37;5.40;;;5.60;99.90;;;;;;5030308;28;20462;-57
2023/10/06 06:00:56;;;;;;;10.60;5.87;;;5.60;99.90;;;;;;5032902;28;20453;-57
2023/10/06 06:03:23;;;;;;;8.03;6.03;;;5.60;99.90;;;;;;5022691;28;20469;-58
2023/10/06 06:05:53;;;;;;;19.33;6.50;;;5.60;99.90;;;;;;5029227;28;20415;-57
2023/10/06 06:08:22;;;;;;;23.63;6.30;;;5.60;99.90;;;;;;5029072;28;20437;-56
2023/10/06 06:10:47;;;;;;;17.70;5.87;;;5.60;99.90;;;;;;5016247;28;20508;-58
2023/10/06 06:13:17;;;;;;;11.90;5.83;;;5.60;99.90;;;;;;5022265;28;21121;-59
2023/10/06 06:15:43;;;;;;;10.30;6.70;;;5.50;99.90;;;;;;5027504;28;20192;-59
2023/10/06 06:18:09;;;;;;;11.00;6.73;;;5.50;99.90;;;;;;5027022;28;21161;-58
2023/10/06 06:20:38;;;;;;;16.23;7.13;;;5.60;99.90;;;;;;5027455;28;20451;-59
2023/10/06 06:23:08;;;;;;;10.70;6.20;;;5.60;99.90;;;;;;5018963;28;20708;-59
2023/10/06 06:25:37;;;;;;;7.73;5.30;;;5.60;99.90;;;;;;5024034;28;20973;-58
2023/10/06 06:28:05;;;;;;;8.40;6.37;;;5.60;99.90;;;;;;5025936;28;20875;-59
2023/10/06 06:30:34;;;;;;;9.07;6.00;;;5.60;99.90;;;;;;5028905;28;20839;-59
2023/10/06 06:33:01;;;;;;;10.07;5.70;;;5.60;99.90;;;;;;5018252;28;20461;-59
2023/10/06 06:35:28;;;;;;;9.67;7.20;;;5.60;99.90;;;;;;5022461;28;20856;-59
2023/10/06 06:38:01;;;;;;;18.97;6.17;;;5.60;99.90;;;;;;5027259;28;20969;-59
2023/10/06 06:40:30;;;;;;;18.10;5.73;;;5.60;99.90;;;;;;5021546;28;20455;-59
2023/10/06 06:42:57;;;;;;;12.63;5.90;;;5.60;99.90;;;;;;5025746;28;20427;-58
2023/10/06 06:45:26;;;;;;;21.23;6.87;;;5.60;99.90;;;;;;5019469;28;20810;-59
2023/10/06 06:47:52;;;;;;;10.73;7.00;;;5.60;99.90;;;;;;5024959;28;20431;-60
2023/10/06 06:50:18;;;;;;;6.93;5.10;;;5.60;99.90;;;;;;5028014;28;20513;-58
2023/10/06 06:52:54;;;;;;;11.10;6.67;;;5.60;99.90;;;;;;5026629;28;20445;-58
2023/10/06 06:55:20;;;;;;;9.57;6.33;;;5.70;99.90;;;;;;5026906;28;20436;-59
2023/10/06 06:57:50;;;;;;;10.03;6.27;;;5.70;99.90;;;;;;5023742;28;20851;-59
2023/10/06 07:00:21;;;;;;;8.00;6.20;;;5.80;99.90;;;;;;5019275;28;20967;-59
2023/10/06 07:02:51;;;;;;;8.60;5.83;;;5.80;99.90;;;;;;5020492;28;20539;-59
2023/10/06 07:05:21;;;;;;;8.40;6.00;;;5.80;99.90;;;;;;5028106;28;20929;-58
2023/10/06 07:07:50;;;;;;;11.23;6.53;;;5.90;99.90;;;;;;5026079;28;20465;-60
2023/10/06 07:10:20;;;;;;;12.80;7.27;;;5.90;99.90;;;;;;5020824;28;20527;-59
2023/10/06 07:12:50;;;;;;;16.13;7.83;;;6.00;99.90;;;;;;5024708;28;21192;-59
2023/10/06 07:15:17;;;;;;;14.50;8.27;;;6.00;99.90;;;;;;5023030;28;21076;-59
2023/10/06 07:17:45;;;;;;;16.53;9.40;;;6.10;99.90;;;;;;5021718;28;20462;-58
2023/10/06 07:20:18;;;;;;;18.50;9.77;;;6.20;99.90;;;;;;5019883;28;20520;-58
2023/10/06 07:22:49;;;;;;;22.67;11.70;;;6.30;99.90;;;;;;5026811;28;20465;-58
2023/10/06 07:25:15;;;;;;;18.70;11.13;;;6.40;99.90;;;;;;5022904;28;20440;-59
2023/10/06 07:27:49;;;;;;;21.27;11.63;;;6.50;99.90;;;;;;5027006;28;20484;-59
2023/10/06 07:30:15;;;;;;;24.27;11.77;;;6.50;99.90;;;;;;5026633;28;20449;-58
2023/10/06 07:32:43;;;;;;;21.73;10.70;;;6.60;99.90;;;;;;5023247;28;20424;-58
2023/10/06 07:35:14;;;;;;;29.53;12.20;;;6.70;99.90;;;;;;5016636;28;20526;-58
2023/10/06 07:37:44;;;;;;;31.53;12.40;;;6.80;99.90;;;;;;5018592;28;20806;-59
2023/10/06 07:40:14;;;;;;;27.00;13.63;;;6.90;99.90;;;;;;5025285;28;20450;-59
2023/10/06 07:42:48;;;;;;;29.57;13.73;;;6.90;99.90;;;;;;5022368;28;20458;-58
2023/10/06 07:45:15;;;;;;;28.50;14.43;;;7.00;99.90;;;;;;5019803;28;20443;-58
2023/10/06 07:47:44;;;;;;;26.50;12.73;;;7.10;99.90;;;;;;5022123;28;20565;-58
2023/10/06 07:50:13;;;;;;;26.57;11.53;;;7.20;99.90;;;;;;5021488;28;20446;-58
2023/10/06 07:52:39;;;;;;;17.77;9.47;;;7.20;99.90;;;;;;5023363;28;20433;-58
2023/10/06 07:55:06;;;;;;;13.83;8.03;;;7.40;99.90;;;;;;5022742;28;20426;-59
2023/10/06 07:57:32;;;;;;;14.33;8.90;;;7.50;99.90;;;;;;5026473;28;20426;-58
2023/10/06 08:00:06;;;;;;;13.60;6.83;;;7.60;99.90;;;;;;5018830;28;20457;-59
2023/10/06 08:02:32;;;;;;;13.77;6.47;;;7.70;99.90;;;;;;5019261;28;20525;-59
2023/10/06 08:04:59;;;;;;;11.53;6.87;;;7.80;99.90;;;;;;5022607;28;20419;-59
2023/10/06 08:07:28;;;;;;;11.87;6.73;;;8.00;99.90;;;;;;5017897;28;20434;-59
2023/10/06 08:09:58;;;;;;;11.77;6.97;;;8.10;99.90;;;;;;5018708;28;20455;-60
2023/10/06 08:12:24;;;;;;;13.70;8.27;;;8.30;99.90;;;;;;5022704;28;20468;-60
2023/10/06 08:14:50;;;;;;;15.43;6.83;;;8.40;99.90;;;;;;5020307;28;20430;-59
2023/10/06 08:17:19;;;;;;;11.43;6.57;;;8.50;99.90;;;;;;5020858;28;20175;-60
2023/10/06 08:19:46;;;;;;;15.10;6.40;;;8.60;99.90;;;;;;5026857;28;20471;-60
2023/10/06 08:22:12;;;;;;;9.23;5.97;;;8.80;99.90;;;;;;5024964;28;20462;-59
2023/10/06 08:24:38;;;;;;;12.00;6.33;;;8.90;99.90;;;;;;5019597;28;21131;-59
2023/10/06 08:27:04;;;;;;;12.33;7.10;;;9.00;99.90;;;;;;5017965;28;20944;-60
2023/10/06 08:29:33;;;;;;;12.70;6.87;;;9.10;99.90;;;;;;5022611;28;20461;-60
2023/10/06 08:31:59;;;;;;;13.57;8.27;;;9.20;99.90;;;;;;5019813;28;20492;-59
2023/10/06 08:34:25;;;;;;;17.70;7.47;;;9.30;99.90;;;;;;5023261;28;20843;-59
2023/10/06 08:36:51;;;;;;;13.13;6.97;;;9.50;99.90;;;;;;5021298;28;20176;-60
2023/10/06 08:39:17;;;;;;;16.20;8.60;;;9.60;99.90;;;;;;5019487;28;20481;-59
2023/10/06 08:41:45;;;;;;;18.90;7.60;;;9.80;99.90;;;;;;5021665;28;20671;-59
2023/10/06 08:44:14;;;;;;;23.33;8.77;;;9.90;99.90;;;;;;5023800;28;21038;-60
2023/10/06 08:46:44;;;;;;;18.57;7.80;;;9.90;99.90;;;;;;5021140;28;20440;-59
2023/10/06 08:49:11;;;;;;;16.50;9.23;;;10.10;99.90;;;;;;5022482;28;20450;-59
2023/10/06 08:51:39;;;;;;;23.17;9.80;;;10.20;99.90;;;;;;5016586;28;20435;-59
2023/10/06 08:54:07;;;;;;;16.53;9.10;;;10.40;99.90;;;;;;5020508;28;20439;-56
2023/10/06 08:56:34;;;;;;;19.60;10.27;;;10.50;99.90;;;;;;5017372;28;20438;-62
2023/10/06 08:59:00;;;;;;;12.90;9.33;;;10.70;99.90;;;;;;5016968;28;20520;-61
2023/10/06 09:01:29;;;;;;;23.37;10.90;;;10.90;99.90;;;;;;5024161;28;20429;-61
2023/10/06 09:04:04;;;;;;;23.77;11.17;;;11.00;99.90;;;;;;5021249;28;21385;-60
2023/10/06 09:06:30;;;;;;;20.20;10.80;;;11.20;99.90;;;;;;5017712;28;20522;-60
2023/10/06 09:08:55;;;;;;;28.23;12.43;;;11.30;99.90;;;;;;5016453;28;21209;-60
2023/10/06 09:11:40;;;;;;;25.33;12.83;;;11.50;99.90;;;;;;5016483;28;20435;-61
2023/10/06 09:14:07;;;;;;;19.30;12.47;;;11.80;99.90;;;;;;5023520;28;20187;-61
2023/10/06 09:16:49;;;;;;;23.40;12.17;;;11.90;99.90;;;;;;5020172;28;20495;-61
2023/10/06 09:19:15;;;;;;;29.73;12.73;;;12.10;99.90;;;;;;5021054;28;20474;-61
2023/10/06 09:22:00;;;;;;;26.27;13.63;;;12.30;99.90;;;;;;5022641;28;20426;-61
2023/10/06 09:24:27;;;;;;;27.27;13.30;;;12.50;99.90;;;;;;5022532;28;20176;-61
2023/10/06 09:26:54;;;;;;;24.43;15.07;;;12.70;99.90;;;;;;5018638;28;20906;-61
2023/10/06 09:29:33;;;;;;;22.50;12.83;;;12.90;99.90;;;;;;5024674;28;20530;-61
2023/10/06 09:32:00;;;;;;;22.33;12.93;;;13.10;99.90;;;;;;5020335;28;20513;-61
2023/10/06 09:34:27;;;;;;;21.63;12.57;;;13.20;99.90;;;;;;5014227;28;20446;-61
2023/10/06 09:36:53;;;;;;;25.03;12.10;;;13.40;99.90;;;;;;5022295;28;20440;-60
2023/10/06 09:39:32;;;;;;;24.00;12.70;;;13.60;99.90;;;;;;5020127;28;20466;-61
2023/10/06 09:42:05;;;;;;;28.30;12.80;;;13.80;99.90;;;;;;5023942;28;21979;-61
2023/10/06 09:44:34;;;;;;;23.80;12.60;;;14.00;99.90;;;;;;5017664;28;20435;-61
2023/10/06 09:47:01;;;;;;;21.17;11.37;;;14.10;99.90;;;;;;5024350;28;20425;-61
2023/10/06 09:49:28;;;;;;;20.27;11.50;;;14.30;99.90;;;;;;5019081;28;20434;-61
2023/10/06 09:52:01;;;;;;;17.43;10.47;;;14.40;99.90;;;;;;5020514;28;20884;-61
2023/10/06 09:54:28;;;;;;;21.07;10.53;;;14.60;99.90;;;;;;5023282;28;20513;-60
2023/10/06 09:56:55;;;;;;;23.00;11.10;;;14.80;99.90;;;;;;5026862;28;20526;-58
2023/10/06 09:59:22;;;;;;;19.90;10.00;;;15.00;99.90;;;;;;5022642;28;20462;-57
2023/10/06 10:01:49;;;;;;;20.40;11.30;;;15.20;99.90;;;;;;5027757;28;20460;-58
2023/10/06 10:04:16;;;;;;;22.03;9.30;;;15.40;99.90;;;;;;5026577;28;20425;-58
2023/10/06 10:06:45;;;;;;;22.20;9.90;;;15.60;99.90;;;;;;5024177;28;20431;-59
2023/10/06 10:09:20;;;;;;;19.73;9.10;;;15.80;98.90;;;;;;5026496;28;20490;-58
2023/10/06 10:12:23;;;;;;;19.20;9.90;;;16.00;99.90;;;;;;5030349;28;20438;-57
2023/10/06 10:14:51;;;;;;;16.73;8.90;;;16.20;95.30;;;;;;5027019;28;20433;-57
2023/10/06 10:17:25;;;;;;;14.93;8.10;;;16.30;94.60;;;;;;5026615;28;20438;-58
2023/10/06 10:19:51;;;;;;;15.20;9.17;;;16.50;94.10;;;;;;5028639;28;20513;-58
2023/10/06 10:22:18;;;;;;;18.17;8.63;;;16.60;91.80;;;;;;5024420;28;20467;-57
2023/10/06 10:24:44;;;;;;;15.13;7.90;;;16.70;91.50;;;;;;5022314;28;20426;-59
2023/10/06 10:27:22;;;;;;;13.43;7.83;;;16.90;91.00;;;;;;5026931;28;20847;-58
2023/10/06 10:29:49;;;;;;;13.40;7.93;;;17.00;90.00;;;;;;5026083;28;21012;-58
2023/10/06 10:32:17;;;;;;;14.70;8.20;;;17.20;90.10;;;;;;5021100;28;20443;-57
2023/10/06 10:35:16;;;;;;;16.10;7.73;;;17.40;87.40;;;;;;5018751;28;20438;-59
2023/10/06 10:37:55;;;;;;;15.43;7.83;;;17.60;77.10;;;;;;5017893;28;20445;-60
2023/10/06 10:40:26;;;;;;;11.47;6.70;;;17.60;71.70;;;;;;5020652;28;20458;-59
2023/10/06 10:43:02;;;;;;;15.83;7.57;;;17.70;69.00;;;;;;5030219;28;20461;-60
2023/10/06 10:45:44;;;;;;;11.80;6.80;;;17.70;67.90;;;;;;5021292;28;20488;-60
2023/10/06 10:48:13;;;;;;;13.17;6.40;;;17.80;66.50;;;;;;5027056;28;20433;-61
2023/10/06 10:51:01;;;;;;;10.80;6.43;;;17.90;67.60;;;;;;5023724;28;20450;-60
2023/10/06 10:53:41;;;;;;;13.03;7.10;;;18.10;67.30;;;;;;5018294;28;20438;-59
2023/10/06 10:56:18;;;;;;;10.93;6.57;;;18.20;67.60;;;;;;5020641;28;20497;-56
2023/10/06 10:58:49;;;;;;;11.17;6.00;;;18.40;66.00;;;;;;5025239;28;20508;-57
2023/10/06 11:01:38;;;;;;;9.47;5.47;;;18.60;65.60;;;;;;5022735;28;20426;-59
2023/10/06 11:04:12;;;;;;;8.37;5.37;;;18.80;65.30;;;;;;5019980;28;20439;-57
2023/10/06 11:06:45;;;;;;;11.27;5.10;;;19.00;64.10;;;;;;5020908;28;20506;-58
2023/10/06 11:09:30;;;;;;;15.27;5.63;;;19.20;63.90;;;;;;5023030;28;20970;-55
2023/10/06 11:11:56;;;;;;;13.47;6.17;;;19.60;63.40;;;;;;5016196;28;20464;-58
2023/10/06 11:14:24;;;;;;;20.37;6.17;;;20.00;62.50;;;;;;5019917;28;20438;-58
2023/10/06 11:16:50;;;;;;;10.17;5.10;;;20.40;61.20;;;;;;5022091;28;20430;-57
2023/10/06 11:19:16;;;;;;;9.73;5.63;;;20.80;58.70;;;;;;5022486;28;20471;-59
2023/10/06 11:21:47;;;;;;;6.90;4.73;;;21.20;57.50;;;;;;5021216;28;20659;-60
2023/10/06 11:24:28;;;;;;;11.70;5.70;;;21.50;56.10;;;;;;5020989;28;22233;-56
2023/10/06 11:26:54;;;;;;;11.67;5.80;;;21.90;56.00;;;;;;5021612;28;20553;-59
2023/10/06 11:29:32;;;;;;;7.63;5.00;;;22.10;54.70;;;;;;5017741;28;20546;-59
2023/10/06 11:32:01;;;;;;;13.30;5.60;;;22.40;53.90;;;;;;5017373;28;20274;-60
2023/10/06 11:34:28;;;;;;;7.70;4.90;;;22.60;52.90;;;;;;5022824;28;20516;-59
2023/10/06 11:36:57;;;;;;;8.10;4.83;;;22.60;51.40;;;;;;5019799;28;20441;-57
2023/10/06 11:39:26;;;;;;;14.40;4.90;;;22.60;50.90;;;;;;5019137;28;20471;-60
2023/10/06 11:41:55;;;;;;;10.10;5.33;;;22.70;51.30;;;;;;5020278;28;20514;-57
2023/10/06 11:44:21;;;;;;;10.20;4.20;;;22.90;50.90;;;;;;5014721;28;20442;-57
2023/10/06 11:46:52;;;;;;;11.13;4.53;;;23.20;50.30;;;;;;5019574;28;20438;-58
2023/10/06 11:49:20;;;;;;;7.43;4.67;;;23.40;50.00;;;;;;5018032;28;20257;-59
2023/10/06 11:51:47;;;;;;;9.03;4.13;;;23.50;48.80;;;;;;5020490;28;20940;-59
2023/10/06 11:54:12;;;;;;;16.87;5.27;;;23.30;48.70;;;;;;5018388;28;20443;-59
2023/10/06 11:56:53;;;;;;;8.00;4.00;;;23.20;48.20;;;;;;5019608;28;20488;-57
2023/10/06 11:59:22;;;;;;;10.83;5.00;;;23.20;48.10;;;;;;5019051;28;20260;-58
2023/10/06 12:01:49;;;;;;;6.17;3.83;;;23.10;48.30;;;;;;5017685;28;20510;-58
2023/10/06 12:04:31;;;;;;;6.80;4.10;;;23.10;48.60;;;;;;5020766;28;20552;-58
2023/10/06 12:06:58;;;;;;;7.03;4.50;;;23.10;47.50;;;;;;5017215;28;20452;-57
2023/10/06 12:09:26;;;;;;;6.00;3.83;;;22.90;46.60;;;;;;5018724;28;20454;-59
2023/10/06 12:11:57;;;;;;;8.67;4.83;;;22.90;47.50;;;;;;5023186;28;20447;-59
2023/10/06 12:14:24;;;;;;;10.57;4.50;;;22.90;47.90;;;;;;5015003;28;20501;-58
2023/10/06 12:16:50;;;;;;;13.60;4.40;;;22.80;48.50;;;;;;5017216;28;20438;-58
2023/10/06 12:19:15;;;;;;;6.33;4.30;;;22.80;48.20;;;;;;5012466;28;20458;-59
2023/10/06 12:21:42;;;;;;;8.37;4.17;;;22.80;47.70;;;;;;5021149;28;20176;-60
2023/10/06 12:24:11;;;;;;;8.03;4.80;;;23.00;48.40;;;;;;5018517;28;20164;-60
2023/10/06 12:26:40;;;;;;;9.30;5.17;;;23.10;48.00;;;;;;5018122;28;21054;-57
2023/10/06 12:29:06;;;;;;;8.87;4.33;;;23.20;47.90;;;;;;5023321;28;20500;-59
2023/10/06 12:31:32;;;;;;;10.23;4.47;;;23.30;48.70;;;;;;5012344;28;21976;-58
2023/10/06 12:34:03;;;;;;;9.90;4.43;;;23.50;48.40;;;;;;5024739;28;20172;-59
2023/10/06 12:36:29;;;;;;;14.80;5.13;;;23.50;48.10;;;;;;5020278;28;20640;-59
2023/10/06 12:38:54;;;;;;;12.13;5.50;;;23.60;48.60;;;;;;5017478;28;20501;-57
2023/10/06 12:41:20;;;;;;;13.10;5.30;;;23.60;47.40;;;;;;5016356;28;20463;-56
2023/10/06 12:43:47;;;;;;;10.33;5.23;;;23.60;47.70;;;;;;5019629;28;20214;-60
2023/10/06 12:46:13;;;;;;;12.57;5.67;;;23.70;47.90;;;;;;5025511;28;20267;-61
2023/10/06 12:48:39;;;;;;;7.30;4.27;;;23.50;47.20;;;;;;5020980;28;20549;-59
2023/10/06 12:51:11;;;;;;;9.60;4.07;;;23.40;48.00;;;;;;5021430;28;20661;-60
2023/10/06 12:53:39;;;;;;;11.70;4.40;;;23.40;48.10;;;;;;5019495;28;20179;-59
2023/10/06 12:56:04;;;;;;;10.60;5.70;;;23.40;48.10;;;;;;5015352;28;21153;-60